PWSweather.com
Personal Weather Stations
Station Observations
KNCCHINA3
Red Tractor Trail, China Grove, NC 28023

Red Tractor TrailChina Grove, NC 28023

Lat: 35.59751, Lon: -80.60201

Elevation: 800

Station Type: Oregon Scientific WMR 968

http://www.joesweathergarage.com

High Low Average
Temperature 72.5°F22.5°C 44.5°F6.9°C 55.0°F12.8°C
Dew Point 47.4°F8.6°C 30.9°F-0.6°C 37.9°F3.3°C
Winds 12.2 mph 19.6 kmh Calm Calm 4.0 mph ESE6.4 kmh ESE
Wind Gusts 17.0 mph27.4 kmh -- 7.0 mph11.3 kmh
Humidity 79% 33% 55%
Pressure 30.24 in1024.0 mb 30.06 in1017.9 mb -
Precipitation 0.00 in0.0 mm - -
Hour Temp Dew Point Humidity Winds Wind Gusts Pressure Precip Precip Rate Daily Precip Total
12:00 AM 49.0°F9.4°C 41.4°F5.2°C 75% 5.6 mph N9.0 kmh N 8.0 mph12.9 kmh 30.09 in1019.0 mb 0.00 in0.0 mm 0.00 in0.0 mm 0.00 in0.0 mm
12:06 AM 49.7°F9.8°C 41.4°F5.2°C 73% 5.8 mph NNE9.3 kmh NNE 8.0 mph12.9 kmh 30.09 in1019.0 mb 0.00 in0.0 mm 0.00 in0.0 mm 0.00 in0.0 mm
12:11 AM 49.9°F9.9°C 40.5°F4.7°C 70% 6.4 mph NNE10.3 kmh NNE 8.0 mph12.9 kmh 30.09 in1019.0 mb 0.00 in0.0 mm 0.00 in0.0 mm 0.00 in0.0 mm
12:16 AM 50.8°F10.4°C 39.5°F4.2°C 65% 6.8 mph N10.9 kmh N 8.0 mph12.9 kmh 30.09 in1019.0 mb 0.00 in0.0 mm 0.00 in0.0 mm 0.00 in0.0 mm
12:21 AM 51.0°F10.6°C 39.3°F4.1°C 64% 3.4 mph NE5.5 kmh NE 8.0 mph12.9 kmh 30.09 in1019.0 mb 0.00 in0.0 mm 0.00 in0.0 mm 0.00 in0.0 mm
12:26 AM 51.3°F10.7°C 39.1°F3.9°C 63% 3.1 mph NE5.0 kmh NE 6.8 mph10.9 kmh 30.09 in1019.0 mb 0.00 in0.0 mm 0.00 in0.0 mm 0.00 in0.0 mm
12:31 AM 51.2°F10.7°C 38.6°F3.7°C 62% 5.3 mph ESE8.5 kmh ESE 7.2 mph11.6 kmh 30.09 in1019.0 mb 0.00 in0.0 mm 0.00 in0.0 mm 0.00 in0.0 mm
12:37 AM 50.4°F10.2°C 38.7°F3.7°C 64% 2.1 mph ESE3.4 kmh ESE 7.2 mph11.6 kmh 30.09 in1019.0 mb 0.00 in0.0 mm 0.00 in0.0 mm 0.00 in0.0 mm
12:42 AM 50.1°F10.1°C 39.2°F4.0°C 66% 3.5 mph ESE5.6 kmh ESE 7.2 mph11.6 kmh 30.09 in1019.0 mb 0.00 in0.0 mm 0.00 in0.0 mm 0.00 in0.0 mm
12:47 AM 49.5°F9.7°C 40.1°F4.5°C 70% 3.9 mph WSW6.3 kmh WSW 4.4 mph7.1 kmh 30.09 in1019.0 mb 0.00 in0.0 mm 0.00 in0.0 mm 0.00 in0.0 mm
12:52 AM 49.4°F9.7°C 40.4°F4.7°C 71% 2.3 mph WSW3.7 kmh WSW 4.4 mph7.1 kmh 30.09 in1019.0 mb 0.00 in0.0 mm 0.00 in0.0 mm 0.00 in0.0 mm
12:57 AM 49.4°F9.7°C 40.4°F4.7°C 71% Calm Calm 4.0 mph6.4 kmh 30.09 in1019.0 mb 0.00 in0.0 mm 0.00 in0.0 mm 0.00 in0.0 mm
01:02 AM 49.2°F9.6°C 40.2°F4.6°C 71% 3.7 mph ENE6.0 kmh ENE 5.8 mph9.3 kmh 30.09 in1019.0 mb 0.00 in0.0 mm 0.00 in0.0 mm 0.00 in0.0 mm
01:07 AM 49.0°F9.4°C 40.0°F4.4°C 71% 3.8 mph ENE6.1 kmh ENE 5.8 mph9.3 kmh 30.09 in1019.0 mb 0.00 in0.0 mm 0.00 in0.0 mm 0.00 in0.0 mm
01:12 AM 49.2°F9.6°C 40.2°F4.6°C 71% 4.3 mph ESE6.9 kmh ESE 5.8 mph9.3 kmh 30.09 in1019.0 mb 0.00 in0.0 mm 0.00 in0.0 mm 0.00 in0.0 mm
01:17 AM 49.2°F9.6°C 40.2°F4.6°C 71% 3.0 mph ENE4.8 kmh ENE 5.8 mph9.3 kmh 30.09 in1019.0 mb 0.00 in0.0 mm 0.00 in0.0 mm 0.00 in0.0 mm
01:22 AM 49.5°F9.7°C 40.1°F4.5°C 70% 3.2 mph NNE5.1 kmh NNE 5.8 mph9.3 kmh 30.12 in1020.0 mb 0.00 in0.0 mm 0.00 in0.0 mm 0.00 in0.0 mm
01:27 AM 49.9°F9.9°C 39.8°F4.3°C 68% 3.9 mph E6.3 kmh E 5.8 mph9.3 kmh 30.12 in1020.0 mb 0.00 in0.0 mm 0.00 in0.0 mm 0.00 in0.0 mm
01:32 AM 49.9°F9.9°C 39.4°F4.1°C 67% 6.4 mph ESE10.3 kmh ESE 8.6 mph13.8 kmh 30.12 in1020.0 mb 0.00 in0.0 mm 0.00 in0.0 mm 0.00 in0.0 mm
01:37 AM 50.3°F10.2°C 39.8°F4.3°C 67% 4.6 mph S7.4 kmh S 8.6 mph13.8 kmh 30.09 in1019.0 mb 0.00 in0.0 mm 0.00 in0.0 mm 0.00 in0.0 mm
01:42 AM 50.1°F10.1°C 39.2°F4.0°C 66% 3.0 mph SE4.8 kmh SE 7.6 mph12.2 kmh 30.09 in1019.0 mb 0.00 in0.0 mm 0.00 in0.0 mm 0.00 in0.0 mm
01:48 AM 50.1°F10.1°C 39.2°F4.0°C 66% 3.9 mph ENE6.3 kmh ENE 5.4 mph8.7 kmh 30.09 in1019.0 mb 0.00 in0.0 mm 0.00 in0.0 mm 0.00 in0.0 mm
01:53 AM 50.1°F10.1°C 38.8°F3.8°C 65% 3.7 mph ENE6.0 kmh ENE 5.0 mph8.0 kmh 30.09 in1019.0 mb 0.00 in0.0 mm 0.00 in0.0 mm 0.00 in0.0 mm
01:58 AM 50.1°F10.1°C 38.4°F3.6°C 64% 5.2 mph ENE8.4 kmh ENE 6.2 mph10.0 kmh 30.09 in1019.0 mb 0.00 in0.0 mm 0.00 in0.0 mm 0.00 in0.0 mm
02:03 AM 50.1°F10.1°C 38.0°F3.3°C 63% 2.6 mph ESE4.2 kmh ESE 6.2 mph10.0 kmh 30.09 in1019.0 mb 0.00 in0.0 mm 0.00 in0.0 mm 0.00 in0.0 mm
02:09 AM 50.1°F10.1°C 38.0°F3.3°C 63% 1.8 mph E2.9 kmh E 6.2 mph10.0 kmh 30.06 in1017.9 mb 0.00 in0.0 mm 0.00 in0.0 mm 0.00 in0.0 mm
02:14 AM 50.1°F10.1°C 37.6°F3.1°C 62% 4.1 mph ENE6.6 kmh ENE 5.0 mph8.0 kmh 30.06 in1017.9 mb 0.00 in0.0 mm 0.00 in0.0 mm 0.00 in0.0 mm
02:19 AM 50.1°F10.1°C 37.6°F3.1°C 62% 3.5 mph ENE5.6 kmh ENE 5.4 mph8.7 kmh 30.06 in1017.9 mb 0.00 in0.0 mm 0.00 in0.0 mm 0.00 in0.0 mm
02:24 AM 50.3°F10.2°C 37.4°F3.0°C 61% 3.8 mph ENE6.1 kmh ENE 5.8 mph9.3 kmh 30.09 in1019.0 mb 0.00 in0.0 mm 0.00 in0.0 mm 0.00 in0.0 mm
02:29 AM 50.3°F10.2°C 37.4°F3.0°C 61% 5.5 mph NE8.9 kmh NE 7.2 mph11.6 kmh 30.09 in1019.0 mb 0.00 in0.0 mm 0.00 in0.0 mm 0.00 in0.0 mm
02:34 AM 50.1°F10.1°C 37.2°F2.9°C 61% 3.0 mph ENE4.8 kmh ENE 7.2 mph11.6 kmh 30.09 in1019.0 mb 0.00 in0.0 mm 0.00 in0.0 mm 0.00 in0.0 mm
02:40 AM 50.1°F10.1°C 37.2°F2.9°C 61% 4.5 mph NE7.2 kmh NE 5.4 mph8.7 kmh 30.09 in1019.0 mb 0.00 in0.0 mm 0.00 in0.0 mm 0.00 in0.0 mm
02:45 AM 50.1°F10.1°C 36.8°F2.7°C 60% 3.9 mph NE6.3 kmh NE 5.4 mph8.7 kmh 30.09 in1019.0 mb 0.00 in0.0 mm 0.00 in0.0 mm 0.00 in0.0 mm
02:50 AM 50.1°F10.1°C 37.2°F2.9°C 61% 6.8 mph NNE10.9 kmh NNE 7.6 mph12.2 kmh 30.09 in1019.0 mb 0.00 in0.0 mm 0.00 in0.0 mm 0.00 in0.0 mm
02:55 AM 49.9°F9.9°C 37.4°F3.0°C 62% 7.2 mph NE11.6 kmh NE 8.6 mph13.8 kmh 30.09 in1019.0 mb 0.00 in0.0 mm 0.00 in0.0 mm 0.00 in0.0 mm
03:00 AM 49.9°F9.9°C 37.0°F2.8°C 61% 6.7 mph NE10.8 kmh NE 9.4 mph15.1 kmh 30.09 in1019.0 mb 0.00 in0.0 mm 0.00 in0.0 mm 0.00 in0.0 mm
03:05 AM 49.9°F9.9°C 36.1°F2.3°C 59% 8.4 mph NE13.5 kmh NE 13.4 mph21.6 kmh 30.09 in1019.0 mb 0.00 in0.0 mm 0.00 in0.0 mm 0.00 in0.0 mm
03:11 AM 50.1°F10.1°C 35.9°F2.2°C 58% 4.7 mph E7.6 kmh E 13.4 mph21.6 kmh 30.09 in1019.0 mb 0.00 in0.0 mm 0.00 in0.0 mm 0.00 in0.0 mm
03:16 AM 50.1°F10.1°C 35.4°F1.9°C 57% 8.4 mph E13.5 kmh E 12.6 mph20.3 kmh 30.09 in1019.0 mb 0.00 in0.0 mm 0.00 in0.0 mm 0.00 in0.0 mm
03:21 AM 50.1°F10.1°C 35.4°F1.9°C 57% 3.9 mph ENE6.3 kmh ENE 12.6 mph20.3 kmh 30.09 in1019.0 mb 0.00 in0.0 mm 0.00 in0.0 mm 0.00 in0.0 mm
03:26 AM 49.9°F9.9°C 35.2°F1.8°C 57% 4.7 mph ENE7.6 kmh ENE 8.0 mph12.9 kmh 30.09 in1019.0 mb 0.00 in0.0 mm 0.00 in0.0 mm 0.00 in0.0 mm
03:35 AM 49.7°F9.8°C 34.6°F1.4°C 56% 8.7 mph E14.0 kmh E 13.0 mph20.9 kmh 30.09 in1019.0 mb 0.00 in0.0 mm 0.00 in0.0 mm 0.00 in0.0 mm
03:40 AM 49.7°F9.8°C 34.6°F1.4°C 56% 8.2 mph NE13.2 kmh NE 13.0 mph20.9 kmh 30.09 in1019.0 mb 0.00 in0.0 mm 0.00 in0.0 mm 0.00 in0.0 mm
03:46 AM 49.7°F9.8°C 34.6°F1.4°C 56% 5.7 mph NE9.2 kmh NE 11.6 mph18.7 kmh 30.09 in1019.0 mb 0.00 in0.0 mm 0.00 in0.0 mm 0.00 in0.0 mm
03:51 AM 49.5°F9.7°C 34.4°F1.3°C 56% 9.2 mph ENE14.8 kmh ENE 13.0 mph20.9 kmh 30.09 in1019.0 mb 0.00 in0.0 mm 0.00 in0.0 mm 0.00 in0.0 mm
03:56 AM 49.5°F9.7°C 34.0°F1.1°C 55% 9.3 mph NE15.0 kmh NE 13.0 mph20.9 kmh 30.09 in1019.0 mb 0.00 in0.0 mm 0.00 in0.0 mm 0.00 in0.0 mm
04:01 AM 49.4°F9.7°C 33.9°F1.1°C 55% 7.3 mph ENE11.7 kmh ENE 13.0 mph20.9 kmh 30.09 in1019.0 mb 0.00 in0.0 mm 0.00 in0.0 mm 0.00 in0.0 mm
04:07 AM 49.2°F9.6°C 34.1°F1.2°C 56% 4.5 mph ENE7.2 kmh ENE 11.2 mph18.0 kmh 30.09 in1019.0 mb 0.00 in0.0 mm 0.00 in0.0 mm 0.00 in0.0 mm
04:12 AM 49.0°F9.4°C 33.9°F1.1°C 56% 4.6 mph ENE7.4 kmh ENE 8.0 mph12.9 kmh 30.09 in1019.0 mb 0.00 in0.0 mm 0.00 in0.0 mm 0.00 in0.0 mm
04:17 AM 49.0°F9.4°C 33.9°F1.1°C 56% 7.4 mph NE11.9 kmh NE 9.8 mph15.8 kmh 30.09 in1019.0 mb 0.00 in0.0 mm 0.00 in0.0 mm 0.00 in0.0 mm
04:22 AM 49.0°F9.4°C 33.9°F1.1°C 56% 5.7 mph NE9.2 kmh NE 12.0 mph19.3 kmh 30.09 in1019.0 mb 0.00 in0.0 mm 0.00 in0.0 mm 0.00 in0.0 mm
04:27 AM 49.0°F9.4°C 33.9°F1.1°C 56% 6.6 mph ENE10.6 kmh ENE 12.0 mph19.3 kmh 30.09 in1019.0 mb 0.00 in0.0 mm 0.00 in0.0 mm 0.00 in0.0 mm
04:32 AM 49.0°F9.4°C 33.5°F0.8°C 55% 6.3 mph NE10.1 kmh NE 11.2 mph18.0 kmh 30.09 in1019.0 mb 0.00 in0.0 mm 0.00 in0.0 mm 0.00 in0.0 mm
04:37 AM 49.0°F9.4°C 33.5°F0.8°C 55% 6.9 mph NE11.1 kmh NE 11.2 mph18.0 kmh 30.09 in1019.0 mb 0.00 in0.0 mm 0.00 in0.0 mm 0.00 in0.0 mm
04:42 AM 48.8°F9.3°C 33.3°F0.7°C 55% 8.0 mph NE12.9 kmh NE 12.0 mph19.3 kmh 30.09 in1019.0 mb 0.00 in0.0 mm 0.00 in0.0 mm 0.00 in0.0 mm
04:47 AM 48.8°F9.3°C 32.8°F0.4°C 54% 7.3 mph NE11.7 kmh NE 12.0 mph19.3 kmh 30.09 in1019.0 mb 0.00 in0.0 mm 0.00 in0.0 mm 0.00 in0.0 mm
04:52 AM 48.8°F9.3°C 32.8°F0.4°C 54% 5.5 mph ENE8.9 kmh ENE 12.0 mph19.3 kmh 30.09 in1019.0 mb 0.00 in0.0 mm 0.00 in0.0 mm 0.00 in0.0 mm
04:58 AM 48.8°F9.3°C 32.8°F0.4°C 54% 6.2 mph NE10.0 kmh NE 8.6 mph13.8 kmh 30.09 in1019.0 mb 0.00 in0.0 mm 0.00 in0.0 mm 0.00 in0.0 mm
05:03 AM 48.8°F9.3°C 32.4°F0.2°C 53% 9.3 mph NNE15.0 kmh NNE 12.6 mph20.3 kmh 30.09 in1019.0 mb 0.00 in0.0 mm 0.00 in0.0 mm 0.00 in0.0 mm
05:08 AM 48.6°F9.2°C 32.2°F0.1°C 53% 7.4 mph NE11.9 kmh NE 12.6 mph20.3 kmh 30.06 in1017.9 mb 0.00 in0.0 mm 0.00 in0.0 mm 0.00 in0.0 mm
05:13 AM 48.6°F9.2°C 32.2°F0.1°C 53% 6.6 mph NE10.6 kmh NE 11.6 mph18.7 kmh 30.06 in1017.9 mb 0.00 in0.0 mm 0.00 in0.0 mm 0.00 in0.0 mm
05:18 AM 48.5°F9.2°C 32.5°F0.3°C 54% 2.4 mph ENE3.9 kmh ENE 11.2 mph18.0 kmh 30.06 in1017.9 mb 0.00 in0.0 mm 0.00 in0.0 mm 0.00 in0.0 mm
05:23 AM 48.3°F9.1°C 32.4°F0.2°C 54% Calm Calm 4.4 mph7.1 kmh 30.06 in1017.9 mb 0.00 in0.0 mm 0.00 in0.0 mm 0.00 in0.0 mm
05:28 AM 48.1°F8.9°C 32.2°F0.1°C 54% 6.1 mph NNE9.8 kmh NNE 6.8 mph10.9 kmh 30.06 in1017.9 mb 0.00 in0.0 mm 0.00 in0.0 mm 0.00 in0.0 mm
05:33 AM 48.1°F8.9°C 32.2°F0.1°C 54% 6.2 mph NNE10.0 kmh NNE 10.8 mph17.4 kmh 30.06 in1017.9 mb 0.00 in0.0 mm 0.00 in0.0 mm 0.00 in0.0 mm
05:38 AM 48.1°F8.9°C 32.2°F0.1°C 54% 4.5 mph NE7.2 kmh NE 10.8 mph17.4 kmh 30.09 in1019.0 mb 0.00 in0.0 mm 0.00 in0.0 mm 0.00 in0.0 mm
05:43 AM 48.1°F8.9°C 32.2°F0.1°C 54% 5.4 mph NE8.7 kmh NE 9.4 mph15.1 kmh 30.09 in1019.0 mb 0.00 in0.0 mm 0.00 in0.0 mm 0.00 in0.0 mm
05:48 AM 47.9°F8.8°C 32.0°F0.0°C 54% 4.6 mph NE7.4 kmh NE 7.6 mph12.2 kmh 30.09 in1019.0 mb 0.00 in0.0 mm 0.00 in0.0 mm 0.00 in0.0 mm
05:53 AM 47.9°F8.8°C 32.0°F0.0°C 54% 7.4 mph NE11.9 kmh NE 9.0 mph14.5 kmh 30.09 in1019.0 mb 0.00 in0.0 mm 0.00 in0.0 mm 0.00 in0.0 mm
05:58 AM 47.9°F8.8°C 32.0°F0.0°C 54% 4.5 mph NNE7.2 kmh NNE 11.2 mph18.0 kmh 30.09 in1019.0 mb 0.00 in0.0 mm 0.00 in0.0 mm 0.00 in0.0 mm
06:03 AM 47.9°F8.8°C 32.0°F0.0°C 54% 4.3 mph NNE6.9 kmh NNE 11.2 mph18.0 kmh 30.09 in1019.0 mb 0.00 in0.0 mm 0.00 in0.0 mm 0.00 in0.0 mm
06:08 AM 47.9°F8.8°C 32.0°F0.0°C 54% 7.8 mph NNE12.6 kmh NNE 10.8 mph17.4 kmh 30.09 in1019.0 mb 0.00 in0.0 mm 0.00 in0.0 mm 0.00 in0.0 mm
06:13 AM 47.7°F8.7°C 31.8°F-0.1°C 54% 8.6 mph NE13.8 kmh NE 12.0 mph19.3 kmh 30.09 in1019.0 mb 0.00 in0.0 mm 0.00 in0.0 mm 0.00 in0.0 mm
06:19 AM 47.7°F8.7°C 31.3°F-0.4°C 53% 8.1 mph NE13.0 kmh NE 12.0 mph19.3 kmh 30.09 in1019.0 mb 0.00 in0.0 mm 0.00 in0.0 mm 0.00 in0.0 mm
06:24 AM 47.7°F8.7°C 31.3°F-0.4°C 53% 7.4 mph NE11.9 kmh NE 11.6 mph18.7 kmh 30.12 in1020.0 mb 0.00 in0.0 mm 0.00 in0.0 mm 0.00 in0.0 mm
06:29 AM 47.7°F8.7°C 31.3°F-0.4°C 53% 7.6 mph NE12.2 kmh NE 10.8 mph17.4 kmh 30.12 in1020.0 mb 0.00 in0.0 mm 0.00 in0.0 mm 0.00 in0.0 mm
06:34 AM 47.6°F8.7°C 31.2°F-0.4°C 53% 4.7 mph ENE7.6 kmh ENE 10.8 mph17.4 kmh 30.12 in1020.0 mb 0.00 in0.0 mm 0.00 in0.0 mm 0.00 in0.0 mm
06:39 AM 47.4°F8.6°C 31.0°F-0.6°C 53% 5.3 mph NE8.5 kmh NE 9.4 mph15.1 kmh 30.12 in1020.0 mb 0.00 in0.0 mm 0.00 in0.0 mm 0.00 in0.0 mm
06:44 AM 47.2°F8.4°C 30.9°F-0.6°C 53% 7.2 mph E11.6 kmh E 13.0 mph20.9 kmh 30.12 in1020.0 mb 0.00 in0.0 mm 0.00 in0.0 mm 0.00 in0.0 mm
06:50 AM 46.8°F8.2°C 31.0°F-0.6°C 54% 5.5 mph NE8.9 kmh NE 13.0 mph20.9 kmh 30.12 in1020.0 mb 0.00 in0.0 mm 0.00 in0.0 mm 0.00 in0.0 mm
06:55 AM 46.8°F8.2°C 31.0°F-0.6°C 54% 5.8 mph NE9.3 kmh NE 10.8 mph17.4 kmh 30.12 in1020.0 mb 0.00 in0.0 mm 0.00 in0.0 mm 0.00 in0.0 mm
07:00 AM 46.7°F8.2°C 30.9°F-0.6°C 54% 3.7 mph NE6.0 kmh NE 10.8 mph17.4 kmh 30.12 in1020.0 mb 0.00 in0.0 mm 0.00 in0.0 mm 0.00 in0.0 mm
07:05 AM 46.7°F8.2°C 30.9°F-0.6°C 54% 5.3 mph NE8.5 kmh NE 6.8 mph10.9 kmh 30.12 in1020.0 mb 0.00 in0.0 mm 0.00 in0.0 mm 0.00 in0.0 mm
07:11 AM 46.5°F8.1°C 31.2°F-0.4°C 55% 3.6 mph E5.8 kmh E 8.0 mph12.9 kmh 30.12 in1020.0 mb 0.00 in0.0 mm 0.00 in0.0 mm 0.00 in0.0 mm
07:16 AM 46.5°F8.1°C 31.2°F-0.4°C 55% 2.9 mph E4.7 kmh E 8.0 mph12.9 kmh 30.12 in1020.0 mb 0.00 in0.0 mm 0.00 in0.0 mm 0.00 in0.0 mm
07:21 AM 46.5°F8.1°C 31.2°F-0.4°C 55% 4.6 mph NE7.4 kmh NE 6.8 mph10.9 kmh 30.15 in1021.0 mb 0.00 in0.0 mm 0.00 in0.0 mm 0.00 in0.0 mm
07:26 AM 46.3°F7.9°C 31.4°F-0.3°C 56% 6.3 mph NNE10.1 kmh NNE 6.8 mph10.9 kmh 30.15 in1021.0 mb 0.00 in0.0 mm 0.00 in0.0 mm 0.00 in0.0 mm
07:31 AM 46.3°F7.9°C 31.9°F-0.1°C 57% 7.8 mph NNE12.6 kmh NNE 9.8 mph15.8 kmh 30.15 in1021.0 mb 0.00 in0.0 mm 0.00 in0.0 mm 0.00 in0.0 mm
07:36 AM 46.5°F8.1°C 32.1°F0.1°C 57% 6.2 mph NE10.0 kmh NE 9.8 mph15.8 kmh 30.15 in1021.0 mb 0.00 in0.0 mm 0.00 in0.0 mm 0.00 in0.0 mm
07:41 AM 46.7°F8.2°C 32.2°F0.1°C 57% 4.8 mph NE7.7 kmh NE 9.8 mph15.8 kmh 30.15 in1021.0 mb 0.00 in0.0 mm 0.00 in0.0 mm 0.00 in0.0 mm
07:46 AM 46.8°F8.2°C 32.3°F0.2°C 57% 4.9 mph NE7.9 kmh NE 8.6 mph13.8 kmh 30.15 in1021.0 mb 0.00 in0.0 mm 0.00 in0.0 mm 0.00 in0.0 mm
07:51 AM 46.8°F8.2°C 32.8°F0.4°C 58% 5.1 mph NE8.2 kmh NE 8.0 mph12.9 kmh 30.12 in1020.0 mb 0.00 in0.0 mm 0.00 in0.0 mm 0.00 in0.0 mm
07:56 AM 47.0°F8.3°C 33.0°F0.6°C 58% 4.2 mph E6.8 kmh E 8.0 mph12.9 kmh 30.12 in1020.0 mb 0.00 in0.0 mm 0.00 in0.0 mm 0.00 in0.0 mm
08:03 AM 47.2°F8.4°C 33.6°F0.9°C 59% 3.8 mph E6.1 kmh E 6.2 mph10.0 kmh 30.12 in1020.0 mb 0.00 in0.0 mm 0.00 in0.0 mm 0.00 in0.0 mm
08:08 AM 47.2°F8.4°C 33.6°F0.9°C 59% 4.8 mph SE7.7 kmh SE 7.6 mph12.2 kmh 30.15 in1021.0 mb 0.00 in0.0 mm 0.00 in0.0 mm 0.00 in0.0 mm
08:14 AM 47.6°F8.7°C 35.2°F1.8°C 62% 4.9 mph ESE7.9 kmh ESE 7.6 mph12.2 kmh 30.15 in1021.0 mb 0.00 in0.0 mm 0.00 in0.0 mm 0.00 in0.0 mm
08:19 AM 47.7°F8.7°C 38.4°F3.6°C 70% 5.6 mph ESE9.0 kmh ESE 8.6 mph13.8 kmh 30.15 in1021.0 mb 0.00 in0.0 mm 0.00 in0.0 mm 0.00 in0.0 mm
08:24 AM 47.9°F8.8°C 39.7°F4.3°C 73% 5.9 mph E9.5 kmh E 9.8 mph15.8 kmh 30.15 in1021.0 mb 0.00 in0.0 mm 0.00 in0.0 mm 0.00 in0.0 mm
08:29 AM 48.1°F8.9°C 39.9°F4.4°C 73% 5.1 mph E8.2 kmh E 9.8 mph15.8 kmh 30.15 in1021.0 mb 0.00 in0.0 mm 0.00 in0.0 mm 0.00 in0.0 mm
08:34 AM 48.5°F9.2°C 40.6°F4.8°C 74% 5.6 mph ESE9.0 kmh ESE 8.0 mph12.9 kmh 30.15 in1021.0 mb 0.00 in0.0 mm 0.00 in0.0 mm 0.00 in0.0 mm
08:39 AM 48.5°F9.2°C 40.9°F4.9°C 75% 7.4 mph SE11.9 kmh SE 9.8 mph15.8 kmh 30.15 in1021.0 mb 0.00 in0.0 mm 0.00 in0.0 mm 0.00 in0.0 mm
08:44 AM 48.5°F9.2°C 40.6°F4.8°C 74% 2.5 mph SSE4.0 kmh SSE 9.8 mph15.8 kmh 30.15 in1021.0 mb 0.00 in0.0 mm 0.00 in0.0 mm 0.00 in0.0 mm
08:49 AM 48.6°F9.2°C 41.0°F5.0°C 75% 6.6 mph ESE10.6 kmh ESE 9.8 mph15.8 kmh 30.15 in1021.0 mb 0.00 in0.0 mm 0.00 in0.0 mm 0.00 in0.0 mm
08:54 AM 48.6°F9.2°C 41.0°F5.0°C 75% 2.4 mph S3.9 kmh S 8.6 mph13.8 kmh 30.18 in1022.0 mb 0.00 in0.0 mm 0.00 in0.0 mm 0.00 in0.0 mm
08:59 AM 48.6°F9.2°C 41.0°F5.0°C 75% 5.0 mph ESE8.0 kmh ESE 7.6 mph12.2 kmh 30.18 in1022.0 mb 0.00 in0.0 mm 0.00 in0.0 mm 0.00 in0.0 mm
09:04 AM 48.3°F9.1°C 40.7°F4.8°C 75% 4.4 mph ESE7.1 kmh ESE 7.6 mph12.2 kmh 30.18 in1022.0 mb 0.00 in0.0 mm 0.00 in0.0 mm 0.00 in0.0 mm
09:09 AM 48.1°F8.9°C 40.9°F4.9°C 76% 4.8 mph E7.7 kmh E 7.2 mph11.6 kmh 30.18 in1022.0 mb 0.00 in0.0 mm 0.00 in0.0 mm 0.00 in0.0 mm
09:14 AM 48.1°F8.9°C 41.2°F5.1°C 77% 3.6 mph E5.8 kmh E 6.8 mph10.9 kmh 30.18 in1022.0 mb 0.00 in0.0 mm 0.00 in0.0 mm 0.00 in0.0 mm
09:19 AM 48.3°F9.1°C 41.4°F5.2°C 77% 3.6 mph ESE5.8 kmh ESE 7.6 mph12.2 kmh 30.18 in1022.0 mb 0.00 in0.0 mm 0.00 in0.0 mm 0.00 in0.0 mm
09:24 AM 48.1°F8.9°C 41.5°F5.3°C 78% 4.3 mph ESE6.9 kmh ESE 7.6 mph12.2 kmh 30.18 in1022.0 mb 0.00 in0.0 mm 0.00 in0.0 mm 0.00 in0.0 mm
09:29 AM 48.1°F8.9°C 41.5°F5.3°C 78% 5.0 mph SE8.0 kmh SE 7.2 mph11.6 kmh 30.18 in1022.0 mb 0.00 in0.0 mm 0.00 in0.0 mm 0.00 in0.0 mm
09:35 AM 48.5°F9.2°C 41.9°F5.5°C 78% 2.8 mph ESE4.5 kmh ESE 6.2 mph10.0 kmh 30.18 in1022.0 mb 0.00 in0.0 mm 0.00 in0.0 mm 0.00 in0.0 mm
09:40 AM 48.5°F9.2°C 42.2°F5.7°C 79% 5.2 mph SE8.4 kmh SE 8.0 mph12.9 kmh 30.21 in1023.0 mb 0.00 in0.0 mm 0.00 in0.0 mm 0.00 in0.0 mm
09:45 AM 48.5°F9.2°C 42.2°F5.7°C 79% 2.5 mph SE4.0 kmh SE 8.0 mph12.9 kmh 30.21 in1023.0 mb 0.00 in0.0 mm 0.00 in0.0 mm 0.00 in0.0 mm
09:50 AM 48.6°F9.2°C 42.0°F5.6°C 78% 3.2 mph SSE5.1 kmh SSE 7.6 mph12.2 kmh 30.21 in1023.0 mb 0.00 in0.0 mm 0.00 in0.0 mm 0.00 in0.0 mm
09:55 AM 48.8°F9.3°C 42.2°F5.7°C 78% 4.0 mph E6.4 kmh E 7.2 mph11.6 kmh 30.21 in1023.0 mb 0.00 in0.0 mm 0.00 in0.0 mm 0.00 in0.0 mm
10:00 AM 49.2°F9.6°C 42.6°F5.9°C 78% 3.6 mph SE5.8 kmh SE 7.2 mph11.6 kmh 30.21 in1023.0 mb 0.00 in0.0 mm 0.00 in0.0 mm 0.00 in0.0 mm
10:05 AM 49.2°F9.6°C 42.6°F5.9°C 78% 4.7 mph E7.6 kmh E 7.2 mph11.6 kmh 30.21 in1023.0 mb 0.00 in0.0 mm 0.00 in0.0 mm 0.00 in0.0 mm
10:10 AM 49.2°F9.6°C 42.3°F5.7°C 77% 3.6 mph E5.8 kmh E 7.2 mph11.6 kmh 30.21 in1023.0 mb 0.00 in0.0 mm 0.00 in0.0 mm 0.00 in0.0 mm
10:15 AM 49.4°F9.7°C 42.5°F5.8°C 77% 4.3 mph ESE6.9 kmh ESE 7.2 mph11.6 kmh 30.21 in1023.0 mb 0.00 in0.0 mm 0.00 in0.0 mm 0.00 in0.0 mm
10:20 AM 49.5°F9.7°C 42.6°F5.9°C 77% 4.3 mph SE6.9 kmh SE 7.2 mph11.6 kmh 30.21 in1023.0 mb 0.00 in0.0 mm 0.00 in0.0 mm 0.00 in0.0 mm
10:25 AM 49.9°F9.9°C 42.6°F5.9°C 76% 3.0 mph ESE4.8 kmh ESE 6.8 mph10.9 kmh 30.21 in1023.0 mb 0.00 in0.0 mm 0.00 in0.0 mm 0.00 in0.0 mm
10:30 AM 49.9°F9.9°C 42.6°F5.9°C 76% 4.9 mph SE7.9 kmh SE 8.6 mph13.8 kmh 30.21 in1023.0 mb 0.00 in0.0 mm 0.00 in0.0 mm 0.00 in0.0 mm
10:35 AM 50.3°F10.2°C 43.0°F6.1°C 76% 3.1 mph SSE5.0 kmh SSE 8.6 mph13.8 kmh 30.21 in1023.0 mb 0.00 in0.0 mm 0.00 in0.0 mm 0.00 in0.0 mm
10:40 AM 51.2°F10.7°C 43.9°F6.6°C 76% 3.2 mph SE5.1 kmh SE 8.0 mph12.9 kmh 30.21 in1023.0 mb 0.00 in0.0 mm 0.00 in0.0 mm 0.00 in0.0 mm
10:47 AM 51.7°F10.9°C 43.3°F6.3°C 73% 2.7 mph S4.3 kmh S 5.4 mph8.7 kmh 30.21 in1023.0 mb 0.00 in0.0 mm 0.00 in0.0 mm 0.00 in0.0 mm
10:52 AM 51.5°F10.8°C 43.1°F6.2°C 73% 3.5 mph SSW5.6 kmh SSW 6.8 mph10.9 kmh 30.18 in1022.0 mb 0.00 in0.0 mm 0.00 in0.0 mm 0.00 in0.0 mm
10:57 AM 52.1°F11.2°C 43.4°F6.3°C 72% 4.7 mph E7.6 kmh E 7.2 mph11.6 kmh 30.18 in1022.0 mb 0.00 in0.0 mm 0.00 in0.0 mm 0.00 in0.0 mm
11:02 AM 52.1°F11.2°C 43.4°F6.3°C 72% 6.2 mph ESE10.0 kmh ESE 8.0 mph12.9 kmh 30.18 in1022.0 mb 0.00 in0.0 mm 0.00 in0.0 mm 0.00 in0.0 mm
11:07 AM 52.2°F11.2°C 43.5°F6.4°C 72% 4.9 mph ENE7.9 kmh ENE 8.0 mph12.9 kmh 30.21 in1023.0 mb 0.00 in0.0 mm 0.00 in0.0 mm 0.00 in0.0 mm
11:12 AM 52.2°F11.2°C 43.1°F6.2°C 71% 6.5 mph ENE10.5 kmh ENE 9.8 mph15.8 kmh 30.21 in1023.0 mb 0.00 in0.0 mm 0.00 in0.0 mm 0.00 in0.0 mm
11:17 AM 53.0°F11.7°C 43.9°F6.6°C 71% 3.0 mph SE4.8 kmh SE 9.8 mph15.8 kmh 30.21 in1023.0 mb 0.00 in0.0 mm 0.00 in0.0 mm 0.00 in0.0 mm
11:22 AM 53.9°F12.2°C 44.7°F7.1°C 71% 5.9 mph E9.5 kmh E 10.8 mph17.4 kmh 30.21 in1023.0 mb 0.00 in0.0 mm 0.00 in0.0 mm 0.00 in0.0 mm
11:27 AM 54.8°F12.7°C 44.8°F7.1°C 69% 4.7 mph SE7.6 kmh SE 10.8 mph17.4 kmh 30.21 in1023.0 mb 0.00 in0.0 mm 0.00 in0.0 mm 0.00 in0.0 mm
11:32 AM 55.5°F13.1°C 44.4°F6.9°C 66% 4.5 mph E7.2 kmh E 9.0 mph14.5 kmh 30.21 in1023.0 mb 0.00 in0.0 mm 0.00 in0.0 mm 0.00 in0.0 mm
11:37 AM 58.0°F14.4°C 46.3°F7.9°C 65% 4.8 mph NE7.7 kmh NE 7.6 mph12.2 kmh 30.21 in1023.0 mb 0.00 in0.0 mm 0.00 in0.0 mm 0.00 in0.0 mm
11:42 AM 60.4°F15.8°C 47.4°F8.6°C 62% 3.9 mph ENE6.3 kmh ENE 8.0 mph12.9 kmh 30.21 in1023.0 mb 0.00 in0.0 mm 0.00 in0.0 mm 0.00 in0.0 mm
11:49 AM 62.0°F16.7°C 45.7°F7.6°C 55% 8.4 mph E13.5 kmh E 11.6 mph18.7 kmh 30.21 in1023.0 mb 0.00 in0.0 mm 0.00 in0.0 mm 0.00 in0.0 mm
11:54 AM 59.6°F15.3°C 42.9°F6.1°C 54% 3.7 mph NE6.0 kmh NE 12.0 mph19.3 kmh 30.21 in1023.0 mb 0.00 in0.0 mm 0.00 in0.0 mm 0.00 in0.0 mm
12:00 PM 59.6°F15.3°C 42.9°F6.1°C 54% 5.8 mph ENE9.3 kmh ENE 12.0 mph19.3 kmh 30.21 in1023.0 mb 0.00 in0.0 mm 0.00 in0.0 mm 0.00 in0.0 mm
12:05 PM 59.9°F15.5°C 43.8°F6.6°C 55% 6.1 mph SE9.8 kmh SE 12.0 mph19.3 kmh 30.21 in1023.0 mb 0.00 in0.0 mm 0.00 in0.0 mm 0.00 in0.0 mm
12:10 PM 61.5°F16.4°C 44.7°F7.1°C 54% 8.0 mph NE12.9 kmh NE 11.2 mph18.0 kmh 30.18 in1022.0 mb 0.00 in0.0 mm 0.00 in0.0 mm 0.00 in0.0 mm
12:15 PM 62.9°F17.2°C 45.0°F7.2°C 52% 5.3 mph ENE8.5 kmh ENE 11.2 mph18.0 kmh 30.18 in1022.0 mb 0.00 in0.0 mm 0.00 in0.0 mm 0.00 in0.0 mm
12:20 PM 65.3°F18.5°C 46.2°F7.9°C 50% 5.1 mph ESE8.2 kmh ESE 9.8 mph15.8 kmh 30.18 in1022.0 mb 0.00 in0.0 mm 0.00 in0.0 mm 0.00 in0.0 mm
12:25 PM 65.6°F18.7°C 44.8°F7.1°C 47% 6.5 mph NE10.5 kmh NE 8.6 mph13.8 kmh 30.24 in1024.0 mb 0.00 in0.0 mm 0.00 in0.0 mm 0.00 in0.0 mm
12:30 PM 63.8°F17.7°C 43.1°F6.2°C 47% 10.0 mph NNE16.1 kmh NNE 13.0 mph20.9 kmh 30.24 in1024.0 mb 0.00 in0.0 mm 0.00 in0.0 mm 0.00 in0.0 mm
12:35 PM 65.3°F18.5°C 43.9°F6.6°C 46% 6.1 mph NE9.8 kmh NE 13.0 mph20.9 kmh 30.24 in1024.0 mb 0.00 in0.0 mm 0.00 in0.0 mm 0.00 in0.0 mm
12:41 PM 64.9°F18.3°C 43.5°F6.4°C 46% 5.9 mph NW9.5 kmh NW 9.8 mph15.8 kmh 30.21 in1023.0 mb 0.00 in0.0 mm 0.00 in0.0 mm 0.00 in0.0 mm
12:45 PM 63.7°F17.6°C 42.5°F5.8°C 46% 6.8 mph S10.9 kmh S 10.8 mph17.4 kmh 30.21 in1023.0 mb 0.00 in0.0 mm 0.00 in0.0 mm 0.00 in0.0 mm
12:53 PM 63.3°F17.4°C 41.5°F5.3°C 45% 12.2 mph N19.6 kmh N 17.0 mph27.4 kmh 30.21 in1023.0 mb 0.00 in0.0 mm 0.00 in0.0 mm 0.00 in0.0 mm
12:58 PM 64.9°F18.3°C 42.4°F5.8°C 44% 9.8 mph ENE15.8 kmh ENE 17.0 mph27.4 kmh 30.21 in1023.0 mb 0.00 in0.0 mm 0.00 in0.0 mm 0.00 in0.0 mm
01:03 PM 66.7°F19.3°C 44.0°F6.7°C 44% 2.9 mph SE4.7 kmh SE 12.0 mph19.3 kmh 30.21 in1023.0 mb 0.00 in0.0 mm 0.00 in0.0 mm 0.00 in0.0 mm
01:08 PM 64.7°F18.2°C 42.2°F5.7°C 44% 6.4 mph W10.3 kmh W 8.0 mph12.9 kmh 30.21 in1023.0 mb 0.00 in0.0 mm 0.00 in0.0 mm 0.00 in0.0 mm
01:13 PM 65.8°F18.8°C 43.2°F6.2°C 44% 5.2 mph WNW8.4 kmh WNW 8.0 mph12.9 kmh 30.21 in1023.0 mb 0.00 in0.0 mm 0.00 in0.0 mm 0.00 in0.0 mm
01:18 PM 64.9°F18.3°C 41.7°F5.4°C 43% 6.3 mph NW10.1 kmh NW 8.0 mph12.9 kmh 30.21 in1023.0 mb 0.00 in0.0 mm 0.00 in0.0 mm 0.00 in0.0 mm
01:23 PM 66.4°F19.1°C 42.5°F5.8°C 42% 5.2 mph N8.4 kmh N 13.0 mph20.9 kmh 30.21 in1023.0 mb 0.00 in0.0 mm 0.00 in0.0 mm 0.00 in0.0 mm
01:28 PM 66.0°F18.9°C 41.5°F5.3°C 41% 6.4 mph N10.3 kmh N 9.4 mph15.1 kmh 30.21 in1023.0 mb 0.00 in0.0 mm 0.00 in0.0 mm 0.00 in0.0 mm
01:33 PM 66.4°F19.1°C 41.8°F5.4°C 41% 7.3 mph N11.7 kmh N 12.6 mph20.3 kmh 30.21 in1023.0 mb 0.00 in0.0 mm 0.00 in0.0 mm 0.00 in0.0 mm
01:38 PM 66.2°F19.0°C 41.6°F5.3°C 41% 6.5 mph W10.5 kmh W 12.6 mph20.3 kmh 30.21 in1023.0 mb 0.00 in0.0 mm 0.00 in0.0 mm 0.00 in0.0 mm
01:43 PM 67.1°F19.5°C 42.5°F5.8°C 41% 6.9 mph N11.1 kmh N 12.0 mph19.3 kmh 30.21 in1023.0 mb 0.00 in0.0 mm 0.00 in0.0 mm 0.00 in0.0 mm
01:48 PM 66.9°F19.4°C 41.6°F5.3°C 40% 8.4 mph NNE13.5 kmh NNE 11.6 mph18.7 kmh 30.21 in1023.0 mb 0.00 in0.0 mm 0.00 in0.0 mm 0.00 in0.0 mm
01:53 PM 68.3°F20.2°C 42.9°F6.1°C 40% 3.7 mph NE6.0 kmh NE 11.6 mph18.7 kmh 30.18 in1022.0 mb 0.00 in0.0 mm 0.00 in0.0 mm 0.00 in0.0 mm
01:58 PM 68.0°F20.0°C 41.2°F5.1°C 38% 8.0 mph N12.9 kmh N 11.6 mph18.7 kmh 30.18 in1022.0 mb 0.00 in0.0 mm 0.00 in0.0 mm 0.00 in0.0 mm
02:03 PM 66.5°F19.2°C 40.6°F4.8°C 39% 9.8 mph NE15.8 kmh NE 17.0 mph27.4 kmh 30.18 in1022.0 mb 0.00 in0.0 mm 0.00 in0.0 mm 0.00 in0.0 mm
02:08 PM 66.2°F19.0°C 40.3°F4.6°C 39% 9.0 mph W14.5 kmh W 17.0 mph27.4 kmh 30.21 in1023.0 mb 0.00 in0.0 mm 0.00 in0.0 mm 0.00 in0.0 mm
02:14 PM 66.2°F19.0°C 40.3°F4.6°C 39% 7.2 mph WSW11.6 kmh WSW 11.6 mph18.7 kmh 30.21 in1023.0 mb 0.00 in0.0 mm 0.00 in0.0 mm 0.00 in0.0 mm
02:19 PM 67.3°F19.6°C 40.6°F4.8°C 38% 6.0 mph W9.7 kmh W 11.2 mph18.0 kmh 30.21 in1023.0 mb 0.00 in0.0 mm 0.00 in0.0 mm 0.00 in0.0 mm
02:24 PM 68.0°F20.0°C 41.2°F5.1°C 38% 5.5 mph NNE8.9 kmh NNE 8.6 mph13.8 kmh 30.18 in1022.0 mb 0.00 in0.0 mm 0.00 in0.0 mm 0.00 in0.0 mm
02:29 PM 69.8°F21.0°C 42.1°F5.6°C 37% 4.9 mph 7.9 kmh 11.2 mph18.0 kmh 30.18 in1022.0 mb 0.00 in0.0 mm 0.00 in0.0 mm 0.00 in0.0 mm
02:34 PM 68.5°F20.3°C 40.3°F4.6°C 36% 7.6 mph N12.2 kmh N 14.8 mph23.8 kmh 30.18 in1022.0 mb 0.00 in0.0 mm 0.00 in0.0 mm 0.00 in0.0 mm
02:39 PM 68.9°F20.5°C 40.6°F4.8°C 36% 6.7 mph SW10.8 kmh SW 14.8 mph23.8 kmh 30.15 in1021.0 mb 0.00 in0.0 mm 0.00 in0.0 mm 0.00 in0.0 mm
02:44 PM 69.6°F20.9°C 41.2°F5.1°C 36% 6.4 mph SW10.3 kmh SW 10.8 mph17.4 kmh 30.15 in1021.0 mb 0.00 in0.0 mm 0.00 in0.0 mm 0.00 in0.0 mm
02:49 PM 71.0°F21.7°C 43.2°F6.2°C 37% 3.4 mph SSE5.5 kmh SSE 9.8 mph15.8 kmh 30.15 in1021.0 mb 0.00 in0.0 mm 0.00 in0.0 mm 0.00 in0.0 mm
02:54 PM 66.5°F19.2°C 38.5°F3.6°C 36% 5.2 mph NNW8.4 kmh NNW 11.6 mph18.7 kmh 30.15 in1021.0 mb 0.00 in0.0 mm 0.00 in0.0 mm 0.00 in0.0 mm
02:59 PM 68.3°F20.2°C 40.8°F4.9°C 37% 5.5 mph NW8.9 kmh NW 11.6 mph18.7 kmh 30.15 in1021.0 mb 0.00 in0.0 mm 0.00 in0.0 mm 0.00 in0.0 mm
03:07 PM 68.3°F20.2°C 40.1°F4.5°C 36% 7.1 mph ENE11.4 kmh ENE 10.8 mph17.4 kmh 30.12 in1020.0 mb 0.00 in0.0 mm 0.00 in0.0 mm 0.00 in0.0 mm
03:12 PM 69.2°F20.7°C 40.9°F4.9°C 36% 2.9 mph ESE4.7 kmh ESE 10.8 mph17.4 kmh 30.12 in1020.0 mb 0.00 in0.0 mm 0.00 in0.0 mm 0.00 in0.0 mm
03:17 PM 69.8°F21.0°C 41.4°F5.2°C 36% 6.1 mph SE9.8 kmh SE 8.6 mph13.8 kmh 30.12 in1020.0 mb 0.00 in0.0 mm 0.00 in0.0 mm 0.00 in0.0 mm
03:22 PM 71.0°F21.7°C 42.5°F5.8°C 36% 5.8 mph SE9.3 kmh SE 8.6 mph13.8 kmh 30.15 in1021.0 mb 0.00 in0.0 mm 0.00 in0.0 mm 0.00 in0.0 mm
03:27 PM 70.9°F21.6°C 41.7°F5.4°C 35% 6.1 mph ENE9.8 kmh ENE 10.8 mph17.4 kmh 30.15 in1021.0 mb 0.00 in0.0 mm 0.00 in0.0 mm 0.00 in0.0 mm
03:32 PM 70.7°F21.5°C 40.7°F4.8°C 34% 11.5 mph NE18.5 kmh NE 15.2 mph24.5 kmh 30.15 in1021.0 mb 0.00 in0.0 mm 0.00 in0.0 mm 0.00 in0.0 mm
03:37 PM 70.5°F21.4°C 40.5°F4.7°C 34% 8.2 mph SE13.2 kmh SE 15.2 mph24.5 kmh 30.15 in1021.0 mb 0.00 in0.0 mm 0.00 in0.0 mm 0.00 in0.0 mm
03:42 PM 70.0°F21.1°C 40.1°F4.5°C 34% 8.8 mph NNE14.2 kmh NNE 14.4 mph23.2 kmh 30.15 in1021.0 mb 0.00 in0.0 mm 0.00 in0.0 mm 0.00 in0.0 mm
03:47 PM 71.4°F21.9°C 41.3°F5.2°C 34% 5.4 mph ESE8.7 kmh ESE 13.8 mph22.2 kmh 30.15 in1021.0 mb 0.00 in0.0 mm 0.00 in0.0 mm 0.00 in0.0 mm
03:52 PM 71.0°F21.7°C 41.0°F5.0°C 34% 7.3 mph SE11.7 kmh SE 12.0 mph19.3 kmh 30.12 in1020.0 mb 0.00 in0.0 mm 0.00 in0.0 mm 0.00 in0.0 mm
03:57 PM 71.0°F21.7°C 41.0°F5.0°C 34% 4.9 mph E7.9 kmh E 12.0 mph19.3 kmh 30.12 in1020.0 mb 0.00 in0.0 mm 0.00 in0.0 mm 0.00 in0.0 mm
04:02 PM 72.5°F22.5°C 42.3°F5.7°C 34% 3.8 mph ENE6.1 kmh ENE 7.6 mph12.2 kmh 30.12 in1020.0 mb 0.00 in0.0 mm 0.00 in0.0 mm 0.00 in0.0 mm
04:07 PM 72.3°F22.4°C 42.1°F5.6°C 34% 3.0 mph SSW4.8 kmh SSW 7.6 mph12.2 kmh 30.15 in1021.0 mb 0.00 in0.0 mm 0.00 in0.0 mm 0.00 in0.0 mm
04:12 PM 72.1°F22.3°C 42.0°F5.6°C 34% 3.5 mph W5.6 kmh W 7.6 mph12.2 kmh 30.15 in1021.0 mb 0.00 in0.0 mm 0.00 in0.0 mm 0.00 in0.0 mm
04:17 PM 69.4°F20.8°C 39.6°F4.2°C 34% 8.8 mph W14.2 kmh W 11.6 mph18.7 kmh 30.15 in1021.0 mb 0.00 in0.0 mm 0.00 in0.0 mm 0.00 in0.0 mm
04:22 PM 69.6°F20.9°C 39.8°F4.3°C 34% 4.2 mph N6.8 kmh N 11.6 mph18.7 kmh 30.12 in1020.0 mb 0.00 in0.0 mm 0.00 in0.0 mm 0.00 in0.0 mm
04:27 PM 70.5°F21.4°C 40.5°F4.7°C 34% 4.0 mph ENE6.4 kmh ENE 10.8 mph17.4 kmh 30.12 in1020.0 mb 0.00 in0.0 mm 0.00 in0.0 mm 0.00 in0.0 mm
04:32 PM 72.3°F22.4°C 42.1°F5.6°C 34% 2.7 mph SE4.3 kmh SE 8.6 mph13.8 kmh 30.12 in1020.0 mb 0.00 in0.0 mm 0.00 in0.0 mm 0.00 in0.0 mm
04:37 PM 71.4°F21.9°C 40.6°F4.8°C 33% 7.1 mph NNE11.4 kmh NNE 11.6 mph18.7 kmh 30.12 in1020.0 mb 0.00 in0.0 mm 0.00 in0.0 mm 0.00 in0.0 mm
04:42 PM 71.0°F21.7°C 40.2°F4.6°C 33% 6.2 mph NE10.0 kmh NE 11.6 mph18.7 kmh 30.12 in1020.0 mb 0.00 in0.0 mm 0.00 in0.0 mm 0.00 in0.0 mm
04:48 PM 71.2°F21.8°C 41.2°F5.1°C 34% 6.0 mph NE9.7 kmh NE 9.4 mph15.1 kmh 30.12 in1020.0 mb 0.00 in0.0 mm 0.00 in0.0 mm 0.00 in0.0 mm
04:53 PM 71.8°F22.1°C 40.9°F4.9°C 33% 5.4 mph SE8.7 kmh SE 8.6 mph13.8 kmh 30.09 in1019.0 mb 0.00 in0.0 mm 0.00 in0.0 mm 0.00 in0.0 mm
04:58 PM 71.6°F22.0°C 40.7°F4.8°C 33% 5.6 mph SSE9.0 kmh SSE 10.8 mph17.4 kmh 30.09 in1019.0 mb 0.00 in0.0 mm 0.00 in0.0 mm 0.00 in0.0 mm
05:03 PM 71.4°F21.9°C 40.6°F4.8°C 33% 4.4 mph ESE7.1 kmh ESE 10.8 mph17.4 kmh 30.09 in1019.0 mb 0.00 in0.0 mm 0.00 in0.0 mm 0.00 in0.0 mm
05:08 PM 70.7°F21.5°C 39.9°F4.4°C 33% 4.8 mph SSW7.7 kmh SSW 9.8 mph15.8 kmh 30.09 in1019.0 mb 0.00 in0.0 mm 0.00 in0.0 mm 0.00 in0.0 mm
05:13 PM 69.4°F20.8°C 39.6°F4.2°C 34% 3.9 mph SW6.3 kmh SW 7.2 mph11.6 kmh 30.09 in1019.0 mb 0.00 in0.0 mm 0.00 in0.0 mm 0.00 in0.0 mm
05:19 PM 69.2°F20.7°C 39.4°F4.1°C 34% 3.2 mph SSW5.1 kmh SSW 7.2 mph11.6 kmh 30.09 in1019.0 mb 0.00 in0.0 mm 0.00 in0.0 mm 0.00 in0.0 mm
05:24 PM 68.5°F20.3°C 38.8°F3.8°C 34% 4.8 mph W7.7 kmh W 8.6 mph13.8 kmh 30.09 in1019.0 mb 0.00 in0.0 mm 0.00 in0.0 mm 0.00 in0.0 mm
05:30 PM 67.8°F19.9°C 38.2°F3.4°C 34% 6.0 mph S9.7 kmh S 8.6 mph13.8 kmh 30.09 in1019.0 mb 0.00 in0.0 mm 0.00 in0.0 mm 0.00 in0.0 mm
05:35 PM 66.9°F19.4°C 37.4°F3.0°C 34% 4.6 mph NNW7.4 kmh NNW 8.6 mph13.8 kmh 30.09 in1019.0 mb 0.00 in0.0 mm 0.00 in0.0 mm 0.00 in0.0 mm
05:41 PM 67.3°F19.6°C 38.5°F3.6°C 35% 5.8 mph E9.3 kmh E 8.0 mph12.9 kmh 30.12 in1020.0 mb 0.00 in0.0 mm 0.00 in0.0 mm 0.00 in0.0 mm
05:46 PM 67.1°F19.5°C 38.3°F3.5°C 35% 3.1 mph SSE5.0 kmh SSE 8.0 mph12.9 kmh 30.12 in1020.0 mb 0.00 in0.0 mm 0.00 in0.0 mm 0.00 in0.0 mm
05:51 PM 66.5°F19.2°C 37.8°F3.2°C 35% 3.6 mph S5.8 kmh S 6.8 mph10.9 kmh 30.12 in1020.0 mb 0.00 in0.0 mm 0.00 in0.0 mm 0.00 in0.0 mm
05:56 PM 66.5°F19.2°C 37.8°F3.2°C 35% 3.4 mph WNW5.5 kmh WNW 5.8 mph9.3 kmh 30.09 in1019.0 mb 0.00 in0.0 mm 0.00 in0.0 mm 0.00 in0.0 mm
06:03 PM 66.9°F19.4°C 38.1°F3.4°C 35% 4.0 mph SE6.4 kmh SE 6.8 mph10.9 kmh 30.09 in1019.0 mb 0.00 in0.0 mm 0.00 in0.0 mm 0.00 in0.0 mm
06:08 PM 66.4°F19.1°C 37.7°F3.2°C 35% 6.3 mph SSE10.1 kmh SSE 8.0 mph12.9 kmh 30.09 in1019.0 mb 0.00 in0.0 mm 0.00 in0.0 mm 0.00 in0.0 mm
06:13 PM 66.0°F18.9°C 37.3°F2.9°C 35% 4.9 mph SE7.9 kmh SE 8.0 mph12.9 kmh 30.09 in1019.0 mb 0.00 in0.0 mm 0.00 in0.0 mm 0.00 in0.0 mm
06:18 PM 65.6°F18.7°C 37.7°F3.2°C 36% 3.4 mph S5.5 kmh S 8.6 mph13.8 kmh 30.09 in1019.0 mb 0.00 in0.0 mm 0.00 in0.0 mm 0.00 in0.0 mm
06:23 PM 66.0°F18.9°C 38.1°F3.4°C 36% 3.2 mph SSW5.1 kmh SSW 8.6 mph13.8 kmh 30.09 in1019.0 mb 0.00 in0.0 mm 0.00 in0.0 mm 0.00 in0.0 mm
06:28 PM 65.5°F18.6°C 37.6°F3.1°C 36% 3.7 mph S6.0 kmh S 7.2 mph11.6 kmh 30.09 in1019.0 mb 0.00 in0.0 mm 0.00 in0.0 mm 0.00 in0.0 mm
06:33 PM 64.9°F18.3°C 37.1°F2.8°C 36% 2.6 mph SSW4.2 kmh SSW 5.8 mph9.3 kmh 30.09 in1019.0 mb 0.00 in0.0 mm 0.00 in0.0 mm 0.00 in0.0 mm
06:38 PM 64.4°F18.0°C 36.6°F2.6°C 36% 3.0 mph S4.8 kmh S 5.8 mph9.3 kmh 30.12 in1020.0 mb 0.00 in0.0 mm 0.00 in0.0 mm 0.00 in0.0 mm
06:43 PM 63.8°F17.7°C 36.1°F2.3°C 36% Calm Calm 5.4 mph8.7 kmh 30.12 in1020.0 mb 0.00 in0.0 mm 0.00 in0.0 mm 0.00 in0.0 mm
06:48 PM 63.3°F17.4°C 35.7°F2.1°C 36% 2.2 mph SSE3.5 kmh SSE 2.2 mph3.5 kmh 30.12 in1020.0 mb 0.00 in0.0 mm 0.00 in0.0 mm 0.00 in0.0 mm
06:54 PM 62.9°F17.2°C 36.0°F2.2°C 37% Calm Calm 2.2 mph3.5 kmh 30.09 in1019.0 mb 0.00 in0.0 mm 0.00 in0.0 mm 0.00 in0.0 mm
06:59 PM 62.4°F16.9°C 35.6°F2.0°C 37% 2.1 mph SSE3.4 kmh SSE 2.6 mph4.2 kmh 30.09 in1019.0 mb 0.00 in0.0 mm 0.00 in0.0 mm 0.00 in0.0 mm
07:06 PM 61.7°F16.5°C 34.9°F1.6°C 37% Calm Calm 2.6 mph4.2 kmh 30.09 in1019.0 mb 0.00 in0.0 mm 0.00 in0.0 mm 0.00 in0.0 mm
07:11 PM 61.5°F16.4°C 34.8°F1.6°C 37% Calm Calm -- 30.09 in1019.0 mb 0.00 in0.0 mm 0.00 in0.0 mm 0.00 in0.0 mm
07:16 PM 61.1°F16.2°C 34.4°F1.3°C 37% Calm Calm -- 30.09 in1019.0 mb 0.00 in0.0 mm 0.00 in0.0 mm 0.00 in0.0 mm
07:21 PM 60.6°F15.9°C 34.6°F1.4°C 38% Calm Calm -- 30.09 in1019.0 mb 0.00 in0.0 mm 0.00 in0.0 mm 0.00 in0.0 mm
07:27 PM 60.2°F15.7°C 34.3°F1.3°C 38% Calm Calm -- 30.09 in1019.0 mb 0.00 in0.0 mm 0.00 in0.0 mm 0.00 in0.0 mm
07:32 PM 59.8°F15.4°C 33.8°F1.0°C 38% Calm Calm -- 30.09 in1019.0 mb 0.00 in0.0 mm 0.00 in0.0 mm 0.00 in0.0 mm
07:37 PM 59.6°F15.3°C 34.3°F1.3°C 39% Calm Calm -- 30.12 in1020.0 mb 0.00 in0.0 mm 0.00 in0.0 mm 0.00 in0.0 mm
07:42 PM 59.1°F15.1°C 33.9°F1.1°C 39% Calm Calm -- 30.12 in1020.0 mb 0.00 in0.0 mm 0.00 in0.0 mm 0.00 in0.0 mm
07:47 PM 58.4°F14.7°C 33.9°F1.1°C 40% Calm Calm -- 30.12 in1020.0 mb 0.00 in0.0 mm 0.00 in0.0 mm 0.00 in0.0 mm
07:52 PM 58.0°F14.4°C 33.5°F0.8°C 40% Calm Calm -- 30.12 in1020.0 mb 0.00 in0.0 mm 0.00 in0.0 mm 0.00 in0.0 mm
07:57 PM 57.5°F14.2°C 33.7°F0.9°C 41% Calm Calm -- 30.12 in1020.0 mb 0.00 in0.0 mm 0.00 in0.0 mm 0.00 in0.0 mm
08:02 PM 56.7°F13.7°C 33.6°F0.9°C 42% Calm Calm -- 30.12 in1020.0 mb 0.00 in0.0 mm 0.00 in0.0 mm 0.00 in0.0 mm
08:07 PM 56.2°F13.4°C 34.9°F1.6°C 45% 3.0 mph ESE4.8 kmh ESE 5.0 mph8.0 kmh 30.12 in1020.0 mb 0.00 in0.0 mm 0.00 in0.0 mm 0.00 in0.0 mm
08:12 PM 55.8°F13.2°C 34.0°F1.1°C 44% Calm Calm 5.0 mph8.0 kmh 30.12 in1020.0 mb 0.00 in0.0 mm 0.00 in0.0 mm 0.00 in0.0 mm
08:17 PM 55.7°F13.2°C 34.5°F1.4°C 45% Calm Calm 1.8 mph2.9 kmh 30.12 in1020.0 mb 0.00 in0.0 mm 0.00 in0.0 mm 0.00 in0.0 mm
08:22 PM 55.1°F12.8°C 34.5°F1.4°C 46% 2.8 mph ESE4.5 kmh ESE 3.2 mph5.1 kmh 30.12 in1020.0 mb 0.00 in0.0 mm 0.00 in0.0 mm 0.00 in0.0 mm
08:27 PM 54.8°F12.7°C 34.2°F1.2°C 46% Calm Calm 3.2 mph5.1 kmh 30.12 in1020.0 mb 0.00 in0.0 mm 0.00 in0.0 mm 0.00 in0.0 mm
08:32 PM 54.4°F12.4°C 34.4°F1.3°C 47% Calm Calm 3.2 mph5.1 kmh 30.12 in1020.0 mb 0.00 in0.0 mm 0.00 in0.0 mm 0.00 in0.0 mm
08:38 PM 53.9°F12.2°C 34.5°F1.4°C 48% Calm Calm -- 30.12 in1020.0 mb 0.00 in0.0 mm 0.00 in0.0 mm 0.00 in0.0 mm
08:43 PM 53.5°F11.9°C 34.7°F1.5°C 49% Calm Calm -- 30.12 in1020.0 mb 0.00 in0.0 mm 0.00 in0.0 mm 0.00 in0.0 mm
08:49 PM 53.0°F11.7°C 34.7°F1.5°C 50% Calm Calm -- 30.12 in1020.0 mb 0.00 in0.0 mm 0.00 in0.0 mm 0.00 in0.0 mm
08:54 PM 52.4°F11.3°C 34.7°F1.5°C 51% Calm Calm -- 30.15 in1021.0 mb 0.00 in0.0 mm 0.00 in0.0 mm 0.00 in0.0 mm
08:59 PM 51.9°F11.1°C 34.7°F1.5°C 52% Calm Calm -- 30.15 in1021.0 mb 0.00 in0.0 mm 0.00 in0.0 mm 0.00 in0.0 mm
09:04 PM 51.5°F10.8°C 34.9°F1.6°C 53% Calm Calm -- 30.15 in1021.0 mb 0.00 in0.0 mm 0.00 in0.0 mm 0.00 in0.0 mm
09:09 PM 51.3°F10.7°C 34.7°F1.5°C 53% Calm Calm -- 30.15 in1021.0 mb 0.00 in0.0 mm 0.00 in0.0 mm 0.00 in0.0 mm
09:14 PM 51.0°F10.6°C 34.4°F1.3°C 53% Calm Calm -- 30.15 in1021.0 mb 0.00 in0.0 mm 0.00 in0.0 mm 0.00 in0.0 mm
09:19 PM 50.6°F10.3°C 34.5°F1.4°C 54% Calm Calm -- 30.15 in1021.0 mb 0.00 in0.0 mm 0.00 in0.0 mm 0.00 in0.0 mm
09:24 PM 50.6°F10.3°C 34.5°F1.4°C 54% Calm Calm -- 30.15 in1021.0 mb 0.00 in0.0 mm 0.00 in0.0 mm 0.00 in0.0 mm
09:29 PM 50.6°F10.3°C 34.5°F1.4°C 54% Calm Calm -- 30.15 in1021.0 mb 0.00 in0.0 mm 0.00 in0.0 mm 0.00 in0.0 mm
09:35 PM 50.3°F10.2°C 34.7°F1.5°C 55% Calm Calm -- 30.15 in1021.0 mb 0.00 in0.0 mm 0.00 in0.0 mm 0.00 in0.0 mm
09:39 PM 50.1°F10.1°C 35.4°F1.9°C 57% Calm Calm -- 30.18 in1022.0 mb 0.00 in0.0 mm 0.00 in0.0 mm 0.00 in0.0 mm
09:45 PM 49.9°F9.9°C 35.2°F1.8°C 57% Calm Calm -- 30.18 in1022.0 mb 0.00 in0.0 mm 0.00 in0.0 mm 0.00 in0.0 mm
09:50 PM 49.5°F9.7°C 36.6°F2.6°C 61% Calm Calm -- 30.18 in1022.0 mb 0.00 in0.0 mm 0.00 in0.0 mm 0.00 in0.0 mm
09:55 PM 49.2°F9.6°C 36.3°F2.4°C 61% Calm Calm -- 30.15 in1021.0 mb 0.00 in0.0 mm 0.00 in0.0 mm 0.00 in0.0 mm
10:00 PM 49.0°F9.4°C 36.6°F2.6°C 62% Calm Calm -- 30.15 in1021.0 mb 0.00 in0.0 mm 0.00 in0.0 mm 0.00 in0.0 mm
10:05 PM 48.8°F9.3°C 37.2°F2.9°C 64% Calm Calm -- 30.15 in1021.0 mb 0.00 in0.0 mm 0.00 in0.0 mm 0.00 in0.0 mm
10:10 PM 48.5°F9.2°C 36.9°F2.7°C 64% Calm Calm -- 30.15 in1021.0 mb 0.00 in0.0 mm 0.00 in0.0 mm 0.00 in0.0 mm
10:15 PM 48.3°F9.1°C 37.5°F3.1°C 66% Calm Calm -- 30.15 in1021.0 mb 0.00 in0.0 mm 0.00 in0.0 mm 0.00 in0.0 mm
10:21 PM 48.1°F8.9°C 36.9°F2.7°C 65% 2.0 mph ESE3.2 kmh ESE 3.2 mph5.1 kmh 30.15 in1021.0 mb 0.00 in0.0 mm 0.00 in0.0 mm 0.00 in0.0 mm
10:26 PM 47.9°F8.8°C 36.7°F2.6°C 65% Calm Calm 3.2 mph5.1 kmh 30.15 in1021.0 mb 0.00 in0.0 mm 0.00 in0.0 mm 0.00 in0.0 mm
10:31 PM 47.7°F8.7°C 38.0°F3.3°C 69% 2.6 mph ESE4.2 kmh ESE 2.6 mph4.2 kmh 30.15 in1021.0 mb 0.00 in0.0 mm 0.00 in0.0 mm 0.00 in0.0 mm
10:36 PM 47.4°F8.6°C 38.1°F3.4°C 70% Calm Calm 2.6 mph4.2 kmh 30.15 in1021.0 mb 0.00 in0.0 mm 0.00 in0.0 mm 0.00 in0.0 mm
10:42 PM 47.0°F8.3°C 38.1°F3.4°C 71% Calm Calm -- 30.15 in1021.0 mb 0.00 in0.0 mm 0.00 in0.0 mm 0.00 in0.0 mm
10:47 PM 46.8°F8.2°C 37.5°F3.1°C 70% Calm Calm -- 30.15 in1021.0 mb 0.00 in0.0 mm 0.00 in0.0 mm 0.00 in0.0 mm
10:52 PM 46.7°F8.2°C 37.4°F3.0°C 70% Calm Calm -- 30.15 in1021.0 mb 0.00 in0.0 mm 0.00 in0.0 mm 0.00 in0.0 mm
10:57 PM 46.7°F8.2°C 37.8°F3.2°C 71% Calm Calm -- 30.15 in1021.0 mb 0.00 in0.0 mm 0.00 in0.0 mm 0.00 in0.0 mm
11:03 PM 46.3°F7.9°C 37.4°F3.0°C 71% Calm Calm -- 30.15 in1021.0 mb 0.00 in0.0 mm 0.00 in0.0 mm 0.00 in0.0 mm
11:08 PM 46.1°F7.8°C 37.9°F3.3°C 73% Calm Calm -- 30.15 in1021.0 mb 0.00 in0.0 mm 0.00 in0.0 mm 0.00 in0.0 mm
11:14 PM 46.1°F7.8°C 37.9°F3.3°C 73% Calm Calm -- 30.15 in1021.0 mb 0.00 in0.0 mm 0.00 in0.0 mm 0.00 in0.0 mm
11:20 PM 46.1°F7.8°C 38.3°F3.5°C 74% Calm Calm -- 30.15 in1021.0 mb 0.00 in0.0 mm 0.00 in0.0 mm 0.00 in0.0 mm
11:25 PM 45.9°F7.7°C 38.1°F3.4°C 74% Calm Calm -- 30.12 in1020.0 mb 0.00 in0.0 mm 0.00 in0.0 mm 0.00 in0.0 mm
11:30 PM 45.8°F7.7°C 38.3°F3.5°C 75% Calm Calm -- 30.12 in1020.0 mb 0.00 in0.0 mm 0.00 in0.0 mm 0.00 in0.0 mm
11:35 PM 45.4°F7.4°C 37.6°F3.1°C 74% Calm Calm -- 30.12 in1020.0 mb 0.00 in0.0 mm 0.00 in0.0 mm 0.00 in0.0 mm
11:40 PM 45.4°F7.4°C 37.6°F3.1°C 74% Calm Calm -- 30.12 in1020.0 mb 0.00 in0.0 mm 0.00 in0.0 mm 0.00 in0.0 mm
11:46 PM 45.4°F7.4°C 37.9°F3.3°C 75% Calm Calm -- 30.12 in1020.0 mb 0.00 in0.0 mm 0.00 in0.0 mm 0.00 in0.0 mm
11:51 PM 45.4°F7.4°C 37.9°F3.3°C 75% Calm Calm -- 30.12 in1020.0 mb 0.00 in0.0 mm 0.00 in0.0 mm 0.00 in0.0 mm
11:56 PM 45.2°F7.3°C 38.1°F3.4°C 76% Calm Calm -- 30.12 in1020.0 mb 0.00 in0.0 mm 0.00 in0.0 mm 0.00 in0.0 mm